Time;durP1;ratioP1;P1;durP2;ratioP2;P2;SDS_P1;SDS_P2;PMS_P1;PMS_P2;Temp;Humidity;BMP_temperature;BMP_pressure;BME280_temperature;BME280_humidity;BME280_pressure;Samples;Min_cycle;Max_cycle;Signal;HPM_P1;HPM_P2
2021/03/27 00:00:01;;;;;;;9.97;6.83;;;12.90;98.40;;;;;;5035682;28;20444;-79
2021/03/27 00:02:31;;;;;;;8.93;6.63;;;13.10;99.10;;;;;;5035892;28;20548;-78
2021/03/27 00:05:13;;;;;;;9.10;5.60;;;13.30;99.10;;;;;;5035875;28;20648;-79
2021/03/27 00:07:57;;;;;;;12.30;6.50;;;13.40;99.10;;;;;;5036484;28;20484;-79
2021/03/27 00:10:30;;;;;;;10.03;6.13;;;13.50;99.00;;;;;;5051921;28;20548;-79
2021/03/27 00:13:07;;;;;;;9.47;7.10;;;13.50;99.10;;;;;;5054723;28;20565;-78
2021/03/27 00:15:38;;;;;;;8.10;5.97;;;13.50;99.40;;;;;;5055255;28;20832;-79
2021/03/27 00:18:11;;;;;;;9.27;6.20;;;13.50;99.70;;;;;;5058449;28;20453;-78
2021/03/27 00:20:43;;;;;;;10.97;6.37;;;13.40;99.90;;;;;;5055812;28;20810;-78
2021/03/27 00:23:15;;;;;;;7.77;5.73;;;13.40;99.90;;;;;;5014157;28;20474;-78
2021/03/27 00:25:48;;;;;;;7.20;5.50;;;13.40;99.90;;;;;;5019330;28;20460;-78
2021/03/27 00:28:21;;;;;;;8.73;5.67;;;13.40;99.90;;;;;;5039670;28;20778;-78
2021/03/27 00:30:52;;;;;;;7.57;5.17;;;13.40;99.90;;;;;;5053583;28;20996;-78
2021/03/27 00:33:20;;;;;;;7.60;5.70;;;13.40;99.90;;;;;;5053042;28;20543;-78
2021/03/27 00:35:53;;;;;;;7.67;5.53;;;13.40;99.90;;;;;;5052748;28;20415;-78
2021/03/27 00:38:23;;;;;;;8.13;4.87;;;13.40;99.90;;;;;;5044662;28;20460;-79
2021/03/27 00:40:51;;;;;;;7.23;5.30;;;13.50;99.90;;;;;;5035266;28;20742;-79
2021/03/27 00:43:22;;;;;;;8.47;5.40;;;13.50;99.90;;;;;;5034481;28;20556;-79
2021/03/27 00:45:53;;;;;;;8.43;5.30;;;13.40;99.90;;;;;;5034529;28;20485;-79
2021/03/27 00:48:26;;;;;;;7.40;5.03;;;13.40;99.90;;;;;;5034062;28;20457;-79
2021/03/27 00:50:55;;;;;;;6.70;4.73;;;13.40;99.90;;;;;;5034574;28;20434;-79
2021/03/27 00:53:28;;;;;;;6.93;4.37;;;13.40;99.90;;;;;;5034689;28;20473;-79
2021/03/27 00:55:59;;;;;;;7.47;4.63;;;13.30;99.90;;;;;;5035580;28;20878;-79
2021/03/27 00:58:35;;;;;;;9.73;5.13;;;13.30;99.90;;;;;;5041336;28;20442;-79
2021/03/27 01:01:06;;;;;;;6.67;4.40;;;13.30;99.90;;;;;;5034676;28;20442;-79
2021/03/27 01:03:36;;;;;;;6.97;4.80;;;13.30;99.90;;;;;;5034830;28;20501;-80
2021/03/27 01:06:06;;;;;;;5.90;4.30;;;13.30;99.90;;;;;;5034296;28;20532;-79
2021/03/27 01:08:35;;;;;;;8.00;4.70;;;13.20;99.90;;;;;;5033795;28;20539;-79
2021/03/27 01:11:06;;;;;;;8.20;5.70;;;13.20;99.90;;;;;;5043454;28;20494;-79
2021/03/27 01:13:38;;;;;;;6.43;4.50;;;13.00;99.90;;;;;;5053771;28;20488;-79
2021/03/27 01:16:07;;;;;;;7.03;5.20;;;13.00;99.90;;;;;;5055699;28;20501;-78
2021/03/27 01:18:38;;;;;;;8.60;4.77;;;12.90;99.90;;;;;;5055807;28;20434;-78
2021/03/27 01:21:09;;;;;;;6.33;4.97;;;12.90;99.90;;;;;;5056857;28;20428;-78
2021/03/27 01:23:38;;;;;;;6.90;5.00;;;12.70;99.90;;;;;;5056111;28;20553;-79
2021/03/27 01:26:09;;;;;;;8.00;5.10;;;12.70;99.90;;;;;;5048108;28;20496;-79
2021/03/27 01:28:40;;;;;;;7.20;4.80;;;12.70;99.90;;;;;;5036532;28;20434;-78
2021/03/27 01:31:14;;;;;;;7.30;4.60;;;12.70;99.90;;;;;;5056868;28;20528;-79
2021/03/27 01:33:56;;;;;;;6.37;4.50;;;12.70;99.90;;;;;;5054421;28;20639;-78
2021/03/27 01:36:25;;;;;;;8.60;4.30;;;12.70;99.90;;;;;;5053854;28;20460;-79
2021/03/27 01:38:58;;;;;;;7.20;4.47;;;12.80;99.90;;;;;;5053648;28;20453;-78
2021/03/27 01:41:33;;;;;;;8.07;5.30;;;12.70;99.90;;;;;;5053428;28;20504;-78
2021/03/27 01:44:20;;;;;;;5.97;4.70;;;12.80;99.90;;;;;;5053250;28;20563;-79
2021/03/27 01:47:01;;;;;;;7.83;5.10;;;12.70;99.90;;;;;;5052859;28;20431;-79
2021/03/27 01:49:48;;;;;;;8.93;4.90;;;12.70;99.90;;;;;;5053508;28;20457;-78
2021/03/27 01:52:36;;;;;;;8.60;5.30;;;12.70;99.90;;;;;;5055312;28;20455;-80
2021/03/27 01:55:19;;;;;;;8.27;5.43;;;12.60;99.90;;;;;;5050969;28;20527;-78
2021/03/27 01:57:53;;;;;;;6.83;4.90;;;12.50;99.90;;;;;;5050048;28;20926;-78
2021/03/27 02:00:23;;;;;;;6.60;4.97;;;12.50;99.90;;;;;;5035696;28;20466;-78
2021/03/27 02:02:57;;;;;;;8.23;5.73;;;12.50;99.90;;;;;;5032321;28;20461;-79
2021/03/27 02:05:31;;;;;;;6.73;4.40;;;12.40;99.90;;;;;;5032800;28;20485;-79
2021/03/27 02:08:06;;;;;;;7.77;5.57;;;12.40;99.90;;;;;;5034067;28;20557;-79
2021/03/27 02:10:56;;;;;;;7.50;4.87;;;12.40;99.90;;;;;;5033278;28;20461;-79
2021/03/27 02:13:29;;;;;;;6.93;5.07;;;12.30;99.90;;;;;;5033306;28;20449;-79
2021/03/27 02:16:02;;;;;;;7.40;5.60;;;12.30;99.90;;;;;;5032759;28;20458;-79
2021/03/27 02:18:34;;;;;;;7.77;4.70;;;12.30;99.90;;;;;;5032484;28;20450;-79
2021/03/27 02:21:33;;;;;;;7.00;5.13;;;12.30;99.90;;;;;;5032785;28;20460;-80
2021/03/27 02:24:06;;;;;;;7.77;5.30;;;12.20;99.90;;;;;;5041024;28;20504;-79
2021/03/27 02:26:58;;;;;;;9.67;5.70;;;12.20;99.90;;;;;;5034119;28;20485;-80
2021/03/27 02:30:01;;;;;;;7.10;5.10;;;12.20;99.90;;;;;;5050863;28;20436;-78
2021/03/27 02:32:43;;;;;;;8.73;5.73;;;12.20;99.90;;;;;;5053208;28;20445;-80
2021/03/27 02:35:16;;;;;;;9.00;5.70;;;12.10;99.90;;;;;;5052435;28;20831;-78
2021/03/27 02:37:55;;;;;;;8.40;6.13;;;12.00;99.90;;;;;;5051569;28;20481;-79
2021/03/27 02:40:25;;;;;;;9.40;5.57;;;12.00;99.90;;;;;;5053317;28;20423;-79
2021/03/27 02:42:58;;;;;;;7.83;5.10;;;12.00;99.90;;;;;;5053290;28;20542;-79
2021/03/27 02:45:31;;;;;;;10.03;5.40;;;11.90;99.90;;;;;;5052053;28;21022;-78
2021/03/27 02:48:11;;;;;;;8.57;5.77;;;12.00;99.90;;;;;;5050752;28;20962;-80
2021/03/27 02:51:00;;;;;;;9.17;5.20;;;12.00;99.90;;;;;;5052487;28;20469;-79
2021/03/27 02:53:36;;;;;;;8.63;5.37;;;12.00;99.90;;;;;;5044318;28;20519;-79
2021/03/27 02:56:14;;;;;;;7.97;4.90;;;11.90;99.90;;;;;;5038203;28;20881;-79
2021/03/27 02:58:51;;;;;;;8.33;5.60;;;11.80;99.90;;;;;;5046262;28;20447;-79
2021/03/27 03:01:25;;;;;;;7.67;5.30;;;11.80;99.90;;;;;;5037411;28;20465;-79
2021/03/27 03:03:58;;;;;;;8.47;5.13;;;11.80;99.90;;;;;;5032813;28;20586;-79
2021/03/27 03:06:31;;;;;;;7.60;4.93;;;11.70;99.90;;;;;;5036328;28;20487;-78
2021/03/27 03:09:09;;;;;;;6.50;4.97;;;11.80;99.90;;;;;;5035567;28;20476;-78
2021/03/27 03:11:48;;;;;;;7.80;4.93;;;11.60;99.90;;;;;;5041647;28;20427;-78
2021/03/27 03:14:20;;;;;;;6.90;5.00;;;11.70;99.90;;;;;;5055529;28;20606;-78
2021/03/27 03:17:00;;;;;;;10.73;6.20;;;11.60;99.90;;;;;;5051796;28;20451;-78
2021/03/27 03:19:33;;;;;;;6.13;4.63;;;11.60;99.90;;;;;;5035168;28;20483;-78
2021/03/27 03:22:06;;;;;;;7.60;4.80;;;11.70;99.90;;;;;;5035171;28;20521;-78
2021/03/27 03:24:37;;;;;;;10.90;5.07;;;11.70;99.90;;;;;;5035299;28;20464;-78
2021/03/27 03:27:10;;;;;;;6.73;4.93;;;11.70;99.90;;;;;;5036031;28;20792;-78
2021/03/27 03:29:48;;;;;;;7.10;4.67;;;11.70;99.90;;;;;;5047721;28;20450;-78
2021/03/27 03:32:25;;;;;;;7.27;4.97;;;11.70;99.90;;;;;;5036088;28;20461;-78
2021/03/27 03:35:07;;;;;;;9.20;4.50;;;11.70;99.90;;;;;;5035750;28;20990;-79
2021/03/27 03:37:59;;;;;;;6.70;4.43;;;11.70;99.90;;;;;;5034859;28;20631;-78
2021/03/27 03:40:37;;;;;;;6.87;4.50;;;11.80;99.90;;;;;;5033782;28;20434;-79
2021/03/27 03:43:14;;;;;;;6.90;4.50;;;11.90;99.90;;;;;;5050667;28;20837;-78
2021/03/27 03:46:20;;;;;;;6.43;4.27;;;11.90;99.90;;;;;;5054167;28;20593;-78
2021/03/27 03:49:31;;;;;;;5.47;3.60;;;12.00;99.90;;;;;;4991899;28;20479;-78
2021/03/27 03:52:24;;;;;;;3.57;1.50;;;11.90;99.90;;;;;;4984835;28;20468;-79
2021/03/27 03:55:01;;;;;;;4.63;1.87;;;11.40;99.90;;;;;;5028556;28;21089;-78
2021/03/27 03:57:53;;;;;;;2.87;1.20;;;11.00;99.90;;;;;;5034226;28;20452;-78
2021/03/27 04:00:25;;;;;;;3.30;1.30;;;10.80;99.90;;;;;;5037360;28;21007;-79
2021/03/27 04:03:05;;;;;;;6.10;1.50;;;10.70;99.90;;;;;;5035496;28;20453;-79
2021/03/27 04:05:35;;;;;;;3.70;1.23;;;10.60;99.90;;;;;;5035204;28;20564;-79
2021/03/27 04:08:08;;;;;;;2.87;1.10;;;10.60;99.90;;;;;;5035392;28;20797;-78
2021/03/27 04:10:35;;;;;;;4.80;1.10;;;10.60;99.90;;;;;;5046737;28;20870;-79
2021/03/27 04:13:07;;;;;;;3.37;1.10;;;10.60;99.90;;;;;;5056078;28;20449;-80
2021/03/27 04:15:37;;;;;;;2.63;1.00;;;10.60;99.90;;;;;;5054993;28;20449;-80
2021/03/27 04:18:11;;;;;;;2.83;1.00;;;10.70;99.90;;;;;;5055204;28;20433;-79
2021/03/27 04:20:49;;;;;;;2.97;1.00;;;10.70;99.90;;;;;;5054660;28;20457;-79
2021/03/27 04:23:25;;;;;;;4.43;0.93;;;10.70;99.90;;;;;;5016368;28;20478;-79
2021/03/27 04:26:20;;;;;;;2.30;0.90;;;10.50;99.90;;;;;;5065507;22;20497;-84
2021/03/27 04:28:54;;;;;;;2.13;0.70;;;10.40;99.90;;;;;;5044287;28;20450;-85
2021/03/27 04:31:25;;;;;;;2.70;0.83;;;10.30;99.90;;;;;;5038167;28;20825;-86
2021/03/27 04:34:03;;;;;;;3.07;0.90;;;10.10;99.90;;;;;;5037476;28;20450;-85
2021/03/27 04:36:37;;;;;;;2.10;0.67;;;10.10;99.90;;;;;;5048728;28;20558;-85
2021/03/27 04:39:11;;;;;;;3.10;0.90;;;10.10;99.90;;;;;;5042502;28;20445;-86
2021/03/27 04:41:44;;;;;;;2.50;0.80;;;10.10;99.90;;;;;;5036938;28;20595;-85
2021/03/27 04:44:20;;;;;;;2.43;0.80;;;10.20;99.90;;;;;;5037104;28;20426;-85
2021/03/27 04:46:54;;;;;;;2.77;0.90;;;10.00;99.90;;;;;;5036720;28;20948;-86
2021/03/27 04:49:27;;;;;;;2.97;0.80;;;10.00;99.90;;;;;;5037083;28;20556;-85
2021/03/27 04:52:12;;;;;;;2.47;0.90;;;10.10;99.90;;;;;;5042200;28;20454;-86
2021/03/27 04:55:05;;;;;;;2.90;1.00;;;10.10;99.90;;;;;;5054091;28;20448;-85
2021/03/27 04:57:41;;;;;;;5.40;1.10;;;10.10;99.90;;;;;;5042563;28;20471;-89
2021/03/27 05:00:29;;;;;;;2.50;0.77;;;10.10;99.90;;;;;;5057162;28;20610;-84
2021/03/27 05:03:06;;;;;;;3.67;0.80;;;10.10;99.90;;;;;;5057103;28;20434;-86
2021/03/27 05:05:46;;;;;;;2.50;0.80;;;10.00;99.90;;;;;;5057615;28;20480;-86
2021/03/27 05:08:18;;;;;;;3.17;0.90;;;10.00;99.90;;;;;;5056130;28;20822;-85
2021/03/27 05:10:50;;;;;;;3.27;0.90;;;9.90;99.90;;;;;;5056259;28;20927;-86
2021/03/27 05:13:25;;;;;;;2.33;0.70;;;9.90;99.90;;;;;;5056462;28;20524;-86
2021/03/27 05:15:55;;;;;;;2.30;0.80;;;9.80;99.90;;;;;;5056019;28;20461;-86
2021/03/27 05:18:52;;;;;;;2.60;1.07;;;9.70;99.90;;;;;;5054935;28;20958;-85
2021/03/27 05:21:37;;;;;;;2.47;0.87;;;9.50;99.90;;;;;;5044382;28;20481;-86
2021/03/27 05:24:21;;;;;;;2.40;0.60;;;9.50;99.90;;;;;;5042033;28;20534;-85
2021/03/27 05:26:57;;;;;;;2.20;0.70;;;9.60;99.90;;;;;;5026750;28;20527;-86
2021/03/27 05:29:41;;;;;;;2.27;0.80;;;9.70;99.90;;;;;;5037021;28;20525;-86
2021/03/27 05:32:35;;;;;;;2.20;0.80;;;9.80;99.90;;;;;;5036208;28;20465;-86
2021/03/27 05:35:13;;;;;;;3.37;0.70;;;9.60;99.90;;;;;;5051679;28;20480;-85
2021/03/27 05:37:51;;;;;;;3.17;0.80;;;9.70;99.90;;;;;;5056981;28;20556;-88
2021/03/27 05:40:55;;;;;;;2.30;0.60;;;9.50;99.90;;;;;;5056310;28;20539;-85
2021/03/27 05:43:45;;;;;;;2.30;0.70;;;9.60;99.90;;;;;;5055653;28;20973;-86
2021/03/27 05:46:54;;;;;;;2.47;0.93;;;9.50;99.90;;;;;;5052722;28;20927;-87
2021/03/27 05:49:52;;;;;;;2.40;0.80;;;9.50;99.90;;;;;;5039520;28;20528;-85
2021/03/27 05:52:31;;;;;;;2.20;0.60;;;9.50;99.90;;;;;;5035462;28;20541;-87
2021/03/27 05:55:36;;;;;;;2.50;0.73;;;9.50;99.90;;;;;;5016899;28;20536;-84
2021/03/27 05:58:44;;;;;;;2.50;0.77;;;9.60;99.90;;;;;;5017378;28;20856;-84
2021/03/27 06:01:25;;;;;;;3.90;0.83;;;9.60;99.90;;;;;;5017030;28;20952;-84
2021/03/27 06:04:05;;;;;;;3.03;0.60;;;9.40;99.90;;;;;;5048412;28;20456;-84
2021/03/27 06:06:48;;;;;;;2.20;0.60;;;9.60;99.90;;;;;;5043747;28;20526;-83
2021/03/27 06:09:40;;;;;;;2.93;0.70;;;9.30;99.90;;;;;;5053653;28;20446;-81
2021/03/27 06:12:20;;;;;;;3.90;0.70;;;9.30;99.90;;;;;;5042529;28;20438;-85
2021/03/27 06:15:20;;;;;;;2.20;0.60;;;9.20;99.90;;;;;;5042300;28;20465;-87
2021/03/27 06:18:12;;;;;;;3.53;1.03;;;9.30;99.90;;;;;;5005974;28;20503;-82
2021/03/27 06:21:05;;;;;;;3.57;0.90;;;9.50;99.90;;;;;;5053668;28;20415;-82
2021/03/27 06:24:10;;;;;;;2.07;0.63;;;9.40;99.90;;;;;;5061179;28;20464;-83
2021/03/27 06:27:00;;;;;;;2.20;0.60;;;9.10;99.90;;;;;;5018818;28;20524;-85
2021/03/27 06:30:06;;;;;;;3.50;0.90;;;9.60;99.90;;;;;;5038345;28;20438;-84
2021/03/27 06:33:15;;;;;;;3.00;0.90;;;9.60;99.90;;;;;;5010212;28;20463;-84
2021/03/27 06:36:01;;;;;;;2.33;0.90;;;9.00;99.90;;;;;;5016037;28;20529;-83
2021/03/27 06:39:03;;;;;;;4.00;0.87;;;9.40;99.90;;;;;;5014110;28;20435;-83
2021/03/27 06:42:13;;;;;;;3.13;0.87;;;9.30;99.90;;;;;;5014368;28;20516;-84
2021/03/27 06:44:55;;;;;;;2.50;0.90;;;9.00;99.90;;;;;;5026868;28;20493;-83
2021/03/27 06:47:54;;;;;;;2.77;0.70;;;9.10;99.90;;;;;;5044084;28;20469;-84
2021/03/27 06:50:43;;;;;;;2.60;0.90;;;9.10;99.90;;;;;;5053405;28;20441;-84
2021/03/27 06:53:24;;;;;;;3.20;0.80;;;9.20;99.90;;;;;;5053379;28;20527;-84
2021/03/27 06:56:03;;;;;;;2.83;0.73;;;9.10;99.90;;;;;;5053588;28;20473;-85
2021/03/27 06:59:06;;;;;;;3.50;1.08;;;9.20;99.90;;;;;;5052860;28;20468;-84
2021/03/27 07:01:58;;;;;;;4.55;1.40;;;9.10;99.90;;;;;;5053392;28;20676;-86
2021/03/27 07:05:04;;;;;;;2.67;0.80;;;9.30;99.90;;;;;;5054603;28;20214;-84
2021/03/27 07:07:59;;;;;;;3.37;1.00;;;9.40;99.90;;;;;;5058345;28;20520;-85
2021/03/27 07:11:05;;;;;;;3.67;0.80;;;9.40;99.90;;;;;;5041231;28;20460;-85
2021/03/27 07:14:09;;;;;;;2.50;0.80;;;9.20;99.90;;;;;;5054195;28;20487;-83
2021/03/27 07:16:40;;;;;;;4.00;0.90;;;9.40;99.90;;;;;;5054385;28;21188;-86
2021/03/27 07:19:37;;;;;;;3.93;1.10;;;9.60;99.90;;;;;;5060894;28;21123;-86
2021/03/27 07:22:22;;;;;;;3.77;1.30;;;9.60;99.90;;;;;;5054813;28;20472;-85
2021/03/27 07:25:23;;;;;;;3.70;1.10;;;9.70;99.90;;;;;;5024394;28;20485;-83
2021/03/27 07:28:13;;;;;;;5.33;0.83;;;9.90;99.90;;;;;;5051858;28;20481;-83
2021/03/27 07:31:09;;;;;;;2.63;0.60;;;10.10;97.90;;;;;;5060876;28;20496;-84
2021/03/27 07:33:50;;;;;;;4.27;1.10;;;9.70;98.30;;;;;;5056404;28;20481;-85
2021/03/27 07:36:48;;;;;;;2.40;0.80;;;9.60;98.70;;;;;;5060958;28;21096;-84
2021/03/27 07:39:33;;;;;;;3.57;0.90;;;9.50;97.50;;;;;;5063916;28;21155;-84
2021/03/27 07:42:33;;;;;;;2.37;0.70;;;9.50;97.40;;;;;;5071321;28;20469;-81
2021/03/27 07:45:10;;;;;;;3.07;0.80;;;9.50;97.20;;;;;;5069464;28;20515;-82
2021/03/27 07:47:48;;;;;;;2.70;0.93;;;9.40;97.60;;;;;;5061289;28;21083;-83
2021/03/27 07:50:41;;;;;;;2.27;0.73;;;9.50;97.20;;;;;;5062236;28;20551;-86
2021/03/27 07:53:42;;;;;;;3.00;0.83;;;9.50;96.20;;;;;;5063207;28;20465;-86
2021/03/27 07:56:48;;;;;;;3.80;1.00;;;9.70;96.30;;;;;;5061494;28;20472;-86
2021/03/27 07:59:31;;;;;;;2.77;0.93;;;9.60;96.50;;;;;;5035845;28;20449;-83
2021/03/27 08:02:30;;;;;;;4.80;0.87;;;9.50;95.80;;;;;;5065787;28;20488;-83
2021/03/27 08:05:32;;;;;;;3.27;0.90;;;9.90;95.80;;;;;;5057443;28;20519;-86
2021/03/27 08:08:39;;;;;;;3.27;1.10;;;10.00;94.70;;;;;;5058158;28;20528;-85
2021/03/27 08:11:17;;;;;;;4.10;1.10;;;9.90;95.40;;;;;;5058749;28;20576;-86
2021/03/27 08:14:32;;;;;;;3.40;0.87;;;10.10;94.90;;;;;;5060812;28;20524;-84
2021/03/27 08:17:32;;;;;;;3.80;0.87;;;10.10;94.70;;;;;;5059452;28;20473;-85
2021/03/27 08:20:17;;;;;;;3.00;0.70;;;10.20;95.20;;;;;;5057573;28;20985;-86
2021/03/27 08:23:12;;;;;;;3.23;1.27;;;10.20;95.10;;;;;;5058358;28;20436;-84
2021/03/27 08:25:44;;;;;;;4.73;0.90;;;10.20;95.10;;;;;;5042132;28;20488;-85
2021/03/27 08:29:05;;;;;;;2.10;0.60;;;10.30;94.10;;;;;;5039720;28;20473;-85
2021/03/27 08:31:50;;;;;;;3.17;0.73;;;10.10;93.80;;;;;;5000390;28;20545;-85
2021/03/27 08:35:05;;;;;;;3.20;0.97;;;10.20;93.90;;;;;;5039784;28;20495;-83
2021/03/27 08:37:49;;;;;;;2.83;0.90;;;10.20;93.50;;;;;;4977265;28;20437;-84
2021/03/27 08:40:42;;;;;;;4.63;0.93;;;10.10;91.70;;;;;;5032664;28;20486;-86
2021/03/27 08:43:38;;;;;;;4.63;1.17;;;10.00;90.40;;;;;;5039602;28;20434;-85
2021/03/27 08:46:25;;;;;;;2.83;0.70;;;10.00;90.50;;;;;;5046821;28;20593;-84
2021/03/27 08:49:35;;;;;;;2.80;1.23;;;10.20;89.50;;;;;;5050630;28;20462;-87
2021/03/27 08:52:44;;;;;;;2.77;0.80;;;10.30;88.10;;;;;;5069153;28;20480;-87
2021/03/27 08:55:35;;;;;;;3.43;1.03;;;10.50;86.80;;;;;;5029552;28;20722;-85
2021/03/27 08:58:29;;;;;;;2.50;0.60;;;10.40;84.80;;;;;;5033381;28;20463;-87
2021/03/27 09:01:19;;;;;;;2.93;0.90;;;10.50;82.30;;;;;;5031863;28;20451;-86
2021/03/27 09:04:16;;;;;;;2.67;0.80;;;10.60;82.50;;;;;;5033963;28;20450;-86
2021/03/27 09:06:57;;;;;;;2.97;1.17;;;10.70;81.80;;;;;;5066770;28;20481;-88
2021/03/27 09:09:38;;;;;;;3.20;0.73;;;10.70;81.80;;;;;;5072107;28;20710;-86
2021/03/27 09:12:20;;;;;;;2.47;0.83;;;10.80;81.30;;;;;;5074264;28;20407;-85
2021/03/27 09:15:18;;;;;;;7.53;0.83;;;10.80;80.90;;;;;;5073309;28;20690;-87
2021/03/27 09:18:09;;;;;;;3.70;0.87;;;10.90;79.00;;;;;;5041001;28;20478;-86
2021/03/27 09:21:12;;;;;;;2.30;0.70;;;10.80;78.50;;;;;;5075561;28;20473;-87
2021/03/27 09:23:48;;;;;;;5.70;1.40;;;10.90;79.30;;;;;;5051658;28;20560;-86
2021/03/27 09:26:36;;;;;;;2.23;0.70;;;11.00;79.20;;;;;;5054334;28;20488;-84
2021/03/27 09:29:23;;;;;;;3.40;0.90;;;11.20;80.00;;;;;;5054189;28;20426;-86
2021/03/27 09:32:09;;;;;;;3.40;0.87;;;11.30;79.20;;;;;;5055194;28;20422;-86
2021/03/27 09:35:16;;;;;;;3.60;1.20;;;11.30;77.90;;;;;;5034490;28;20434;-85
2021/03/27 09:37:58;;;;;;;2.43;0.80;;;11.30;78.60;;;;;;5032396;28;20515;-86
2021/03/27 09:40:31;;;;;;;3.40;0.90;;;11.30;78.40;;;;;;5033962;28;20438;-85
2021/03/27 09:43:38;;;;;;;2.90;0.93;;;11.40;78.10;;;;;;5034194;28;20523;-82
2021/03/27 09:46:14;;;;;;;5.03;0.70;;;11.30;76.50;;;;;;5036289;28;20525;-83
2021/03/27 09:48:59;;;;;;;2.70;0.70;;;11.40;77.00;;;;;;5053682;28;20454;-83
2021/03/27 09:51:57;;;;;;;3.40;0.97;;;11.40;74.50;;;;;;5054017;28;20454;-86
2021/03/27 09:54:32;;;;;;;2.73;0.80;;;11.40;75.20;;;;;;5066454;28;20482;-84
2021/03/27 09:57:04;;;;;;;2.70;0.70;;;11.30;75.80;;;;;;5072217;28;20435;-86
2021/03/27 09:59:38;;;;;;;2.20;0.63;;;11.40;74.80;;;;;;5074050;28;20503;-83
2021/03/27 10:02:21;;;;;;;6.27;1.07;;;11.60;74.20;;;;;;5074535;28;20426;-85
2021/03/27 10:05:00;;;;;;;2.37;0.70;;;11.70;72.90;;;;;;5071322;28;20468;-84
2021/03/27 10:07:52;;;;;;;2.77;0.93;;;11.60;70.40;;;;;;5067385;28;20874;-82
2021/03/27 10:10:36;;;;;;;2.87;1.10;;;11.40;69.70;;;;;;5051304;28;20489;-84
2021/03/27 10:13:11;;;;;;;6.00;0.90;;;11.50;69.60;;;;;;5037076;28;20850;-85
2021/03/27 10:15:43;;;;;;;2.17;0.63;;;11.50;69.50;;;;;;5037678;28;20545;-83
2021/03/27 10:18:19;;;;;;;2.93;0.90;;;11.60;69.40;;;;;;5037121;28;20466;-84
2021/03/27 10:20:50;;;;;;;3.10;0.77;;;11.60;68.00;;;;;;5035874;28;20590;-83
2021/03/27 10:23:30;;;;;;;3.03;0.60;;;11.40;67.00;;;;;;5036619;28;20436;-85
2021/03/27 10:26:20;;;;;;;3.07;0.80;;;11.40;67.00;;;;;;5028623;28;20512;-84
2021/03/27 10:28:50;;;;;;;2.57;0.80;;;11.40;66.80;;;;;;5035685;28;20485;-85
2021/03/27 10:31:19;;;;;;;5.50;0.80;;;11.60;67.50;;;;;;5037443;28;20477;-86
2021/03/27 10:33:55;;;;;;;3.63;1.20;;;11.70;67.10;;;;;;5044053;28;20468;-82
2021/03/27 10:36:36;;;;;;;2.97;0.97;;;11.90;65.70;;;;;;5049380;28;20460;-85
2021/03/27 10:39:32;;;;;;;3.60;0.87;;;11.90;65.50;;;;;;5062343;28;20440;-83
2021/03/27 10:42:30;;;;;;;3.13;0.90;;;11.90;65.50;;;;;;5068424;28;20420;-81
2021/03/27 10:45:22;;;;;;;3.63;1.03;;;12.10;65.30;;;;;;5054082;28;20482;-82
2021/03/27 10:48:06;;;;;;;3.73;0.70;;;12.20;65.80;;;;;;5042696;28;20466;-83
2021/03/27 10:50:40;;;;;;;2.23;0.70;;;12.20;64.90;;;;;;5044289;28;20449;-84
2021/03/27 10:53:16;;;;;;;3.50;1.03;;;12.30;64.00;;;;;;5053363;28;20459;-85
2021/03/27 10:56:02;;;;;;;5.73;2.03;;;12.30;63.70;;;;;;5048979;28;20464;-84
2021/03/27 10:59:11;;;;;;;6.37;1.10;;;12.30;63.70;;;;;;5059392;28;20448;-85
2021/03/27 11:02:14;;;;;;;3.60;0.97;;;12.60;63.60;;;;;;5041025;28;20484;-86
2021/03/27 11:05:13;;;;;;;3.43;0.87;;;12.70;62.40;;;;;;5058228;28;20555;-85
2021/03/27 11:08:17;;;;;;;2.77;0.80;;;12.90;60.90;;;;;;5061567;28;20487;-82
2021/03/27 11:11:07;;;;;;;4.30;1.20;;;12.80;60.40;;;;;;5042160;28;20517;-86
2021/03/27 11:14:02;;;;;;;2.40;0.97;;;12.70;61.70;;;;;;5041032;28;20433;-85
2021/03/27 11:16:37;;;;;;;3.33;0.80;;;12.30;63.20;;;;;;5037079;28;20557;-85
2021/03/27 11:19:26;;;;;;;2.30;0.50;;;12.10;64.20;;;;;;5036731;28;20968;-81
2021/03/27 11:22:34;;;;;;;3.97;1.10;;;11.90;64.30;;;;;;5038137;28;20456;-85
2021/03/27 11:25:42;;;;;;;3.10;0.87;;;11.90;65.50;;;;;;5032949;28;20456;-85
2021/03/27 11:28:17;;;;;;;5.37;1.00;;;12.00;65.60;;;;;;4972284;28;20777;-85
2021/03/27 11:31:05;;;;;;;5.67;1.13;;;12.10;65.00;;;;;;5024215;28;20497;-84
2021/03/27 11:33:36;;;;;;;3.13;0.77;;;12.00;65.20;;;;;;5021751;28;20424;-84
2021/03/27 11:36:06;;;;;;;3.30;0.87;;;12.00;65.00;;;;;;5028805;28;20502;-83
2021/03/27 11:38:39;;;;;;;3.43;0.70;;;11.90;65.10;;;;;;5028108;28;20531;-88
2021/03/27 11:41:11;;;;;;;7.17;1.10;;;11.90;65.60;;;;;;5029384;28;20510;-85
2021/03/27 11:44:07;;;;;;;5.60;0.93;;;11.90;66.10;;;;;;5041217;28;20477;-85
2021/03/27 11:46:39;;;;;;;2.20;0.60;;;11.80;65.90;;;;;;5039308;28;20500;-82
2021/03/27 11:49:10;;;;;;;2.73;0.70;;;11.60;66.30;;;;;;5040488;28;20481;-86
2021/03/27 11:51:42;;;;;;;3.20;0.90;;;11.50;67.40;;;;;;5040467;28;20454;-85
2021/03/27 11:54:28;;;;;;;2.87;0.90;;;11.40;66.40;;;;;;5039482;28;20458;-86
2021/03/27 11:57:22;;;;;;;2.83;0.90;;;11.30;67.00;;;;;;5040159;28;20461;-83
2021/03/27 12:02:55;;;;;;;4.40;1.00;;;11.60;66.40;;;;;;5061109;28;20483;-84
2021/03/27 12:05:27;;;;;;;3.23;1.00;;;11.50;66.10;;;;;;5060826;28;20523;-84
2021/03/27 12:08:05;;;;;;;3.60;1.27;;;11.60;66.90;;;;;;5061070;28;20434;-84
2021/03/27 12:10:38;;;;;;;5.63;1.97;;;11.70;66.30;;;;;;5062617;28;20564;-84
2021/03/27 12:13:14;;;;;;;4.47;1.10;;;11.60;66.10;;;;;;5064067;28;20467;-85
2021/03/27 12:15:50;;;;;;;4.90;1.10;;;11.70;66.40;;;;;;5055360;28;21052;-85
2021/03/27 12:18:45;;;;;;;4.67;1.10;;;11.70;66.40;;;;;;5042187;28;20476;-84
2021/03/27 12:21:17;;;;;;;5.00;1.30;;;11.80;66.60;;;;;;5042156;28;20492;-85
2021/03/27 12:23:51;;;;;;;7.27;1.90;;;11.80;67.00;;;;;;5041822;28;20521;-82
2021/03/27 12:26:28;;;;;;;3.10;1.30;;;11.90;66.70;;;;;;5042642;28;20557;-85
2021/03/27 12:29:04;;;;;;;4.50;1.23;;;11.90;66.50;;;;;;5049889;28;20476;-84
2021/03/27 12:31:48;;;;;;;2.60;1.03;;;11.70;65.70;;;;;;5043892;28;20519;-83
2021/03/27 12:34:24;;;;;;;4.27;1.27;;;11.80;66.40;;;;;;5042400;28;20436;-84
2021/03/27 12:37:01;;;;;;;4.50;1.17;;;12.00;65.70;;;;;;5043274;28;20661;-84
2021/03/27 12:39:32;;;;;;;4.23;1.27;;;12.10;65.40;;;;;;5041944;28;20788;-84
2021/03/27 12:42:05;;;;;;;3.27;1.50;;;12.20;65.20;;;;;;5043045;28;20438;-84
2021/03/27 12:44:36;;;;;;;4.07;1.60;;;12.40;64.90;;;;;;5043256;28;20504;-82
2021/03/27 12:47:21;;;;;;;4.57;1.03;;;12.50;64.20;;;;;;5042589;28;20474;-82
2021/03/27 12:50:17;;;;;;;4.87;1.63;;;12.60;63.80;;;;;;5043884;28;20475;-84
2021/03/27 12:53:06;;;;;;;4.30;1.23;;;12.60;63.70;;;;;;5045079;28;20525;-82
2021/03/27 12:55:38;;;;;;;4.20;1.17;;;12.70;64.00;;;;;;5062902;28;20439;-85
2021/03/27 12:58:20;;;;;;;3.10;0.87;;;12.80;62.50;;;;;;5048694;28;20458;-83
2021/03/27 13:01:02;;;;;;;5.73;1.03;;;12.70;60.30;;;;;;5043918;28;20450;-84
2021/03/27 13:04:04;;;;;;;4.30;1.53;;;12.60;59.80;;;;;;5043921;28;20837;-83
2021/03/27 13:06:39;;;;;;;3.40;0.90;;;12.60;60.10;;;;;;5059936;28;20488;-84
2021/03/27 13:09:37;;;;;;;3.17;1.07;;;12.60;60.00;;;;;;5061927;28;20546;-83
2021/03/27 13:12:11;;;;;;;4.33;1.23;;;12.50;60.50;;;;;;5048556;28;20559;-84
2021/03/27 13:15:07;;;;;;;3.60;1.00;;;12.50;61.40;;;;;;5061789;28;20451;-85
2021/03/27 13:17:44;;;;;;;3.13;1.40;;;12.40;61.30;;;;;;5065469;28;20449;-85
2021/03/27 13:20:21;;;;;;;3.30;1.20;;;12.30;60.40;;;;;;5074063;28;20449;-83
2021/03/27 13:22:55;;;;;;;2.60;0.90;;;12.40;59.90;;;;;;5053843;28;20536;-84
2021/03/27 13:25:27;;;;;;;5.93;2.20;;;12.40;59.40;;;;;;5052412;28;20607;-83
2021/03/27 13:27:58;;;;;;;3.93;1.10;;;12.50;59.40;;;;;;5043020;28;20518;-84
2021/03/27 13:30:30;;;;;;;4.97;1.30;;;12.50;59.70;;;;;;5051524;28;20536;-83
2021/03/27 13:33:17;;;;;;;3.80;1.27;;;12.50;60.10;;;;;;5055264;28;20473;-83
2021/03/27 13:36:18;;;;;;;6.77;1.50;;;12.60;60.60;;;;;;5044699;28;20457;-83
2021/03/27 13:38:52;;;;;;;2.93;1.10;;;12.60;61.10;;;;;;5037785;28;20527;-84
2021/03/27 13:41:48;;;;;;;3.47;1.00;;;12.60;60.30;;;;;;5059016;28;20452;-83
2021/03/27 13:44:26;;;;;;;3.63;1.30;;;12.80;59.70;;;;;;5059830;28;20448;-84
2021/03/27 13:47:07;;;;;;;3.47;1.13;;;12.90;59.50;;;;;;5057698;28;20513;-82
2021/03/27 13:49:40;;;;;;;2.90;1.20;;;12.90;59.50;;;;;;5057427;28;20460;-83
2021/03/27 13:52:20;;;;;;;4.83;1.00;;;12.90;59.60;;;;;;5060229;28;20463;-83
2021/03/27 13:54:51;;;;;;;4.87;1.80;;;12.60;60.10;;;;;;5056721;28;20580;-84
2021/03/27 13:57:23;;;;;;;4.53;1.20;;;12.40;60.90;;;;;;5057921;28;20520;-84
2021/03/27 14:00:00;;;;;;;3.50;0.90;;;12.50;61.50;;;;;;5059319;28;20491;-83
2021/03/27 14:02:51;;;;;;;3.97;1.60;;;12.60;61.70;;;;;;5038002;28;20466;-85
2021/03/27 14:05:32;;;;;;;3.83;1.10;;;12.80;61.30;;;;;;5038046;28;20497;-83
2021/03/27 14:08:08;;;;;;;4.17;1.13;;;12.60;61.00;;;;;;5037705;28;20438;-83
2021/03/27 14:10:38;;;;;;;4.53;1.40;;;12.70;61.60;;;;;;5040974;28;20424;-82